sensor_id;sensor_type;location;lat;lon;timestamp;temperature;humidity
59977;DHT22;45837;51.076;3.578;2022-09-21T00:01:09;19.30;66.30
59977;DHT22;45837;51.076;3.578;2022-09-21T00:03:36;19.30;66.20
59977;DHT22;45837;51.076;3.578;2022-09-21T00:06:04;19.30;66.20
59977;DHT22;45837;51.076;3.578;2022-09-21T00:08:30;19.20;66.10
59977;DHT22;45837;51.076;3.578;2022-09-21T00:10:56;19.30;66.10
59977;DHT22;45837;51.076;3.578;2022-09-21T00:13:22;19.30;66.20
59977;DHT22;45837;51.076;3.578;2022-09-21T00:15:48;19.20;66.00
59977;DHT22;45837;51.076;3.578;2022-09-21T00:18:15;19.20;65.90
59977;DHT22;45837;51.076;3.578;2022-09-21T00:20:41;19.20;66.00
59977;DHT22;45837;51.076;3.578;2022-09-21T00:23:08;19.20;65.90
59977;DHT22;45837;51.076;3.578;2022-09-21T00:25:34;19.20;65.90
59977;DHT22;45837;51.076;3.578;2022-09-21T00:28:00;19.30;66.00
59977;DHT22;45837;51.076;3.578;2022-09-21T00:30:26;19.20;65.90
59977;DHT22;45837;51.076;3.578;2022-09-21T00:32:53;19.20;65.80
59977;DHT22;45837;51.076;3.578;2022-09-21T00:35:19;19.20;65.80
59977;DHT22;45837;51.076;3.578;2022-09-21T00:37:45;19.20;65.80
59977;DHT22;45837;51.076;3.578;2022-09-21T00:40:11;19.20;65.70
59977;DHT22;45837;51.076;3.578;2022-09-21T00:42:37;19.20;65.70
59977;DHT22;45837;51.076;3.578;2022-09-21T00:45:04;19.20;65.70
59977;DHT22;45837;51.076;3.578;2022-09-21T00:47:37;19.20;65.70
59977;DHT22;45837;51.076;3.578;2022-09-21T00:50:10;19.20;65.70
59977;DHT22;45837;51.076;3.578;2022-09-21T00:52:43;19.20;65.60
59977;DHT22;45837;51.076;3.578;2022-09-21T00:55:24;19.20;65.60
59977;DHT22;45837;51.076;3.578;2022-09-21T00:57:54;19.20;65.60
59977;DHT22;45837;51.076;3.578;2022-09-21T01:00:21;19.20;65.60
59977;DHT22;45837;51.076;3.578;2022-09-21T01:02:47;19.20;65.70
59977;DHT22;45837;51.076;3.578;2022-09-21T01:05:13;19.20;65.60
59977;DHT22;45837;51.076;3.578;2022-09-21T01:07:42;19.20;65.70
59977;DHT22;45837;51.076;3.578;2022-09-21T01:10:12;19.20;65.60
59977;DHT22;45837;51.076;3.578;2022-09-21T01:15:55;19.20;65.60
59977;DHT22;45837;51.076;3.578;2022-09-21T01:18:29;19.20;65.60
59977;DHT22;45837;51.076;3.578;2022-09-21T01:21:18;19.20;65.50
59977;DHT22;45837;51.076;3.578;2022-09-21T01:26:52;19.10;65.40
59977;DHT22;45837;51.076;3.578;2022-09-21T01:29:43;19.20;65.70
59977;DHT22;45837;51.076;3.578;2022-09-21T01:34:54;19.10;65.50
59977;DHT22;45837;51.076;3.578;2022-09-21T01:37:32;19.10;65.50
59977;DHT22;45837;51.076;3.578;2022-09-21T01:40:09;19.10;65.50
59977;DHT22;45837;51.076;3.578;2022-09-21T01:42:39;19.10;65.50
59977;DHT22;45837;51.076;3.578;2022-09-21T01:45:08;19.10;65.40
59977;DHT22;45837;51.076;3.578;2022-09-21T01:47:37;19.10;65.40
59977;DHT22;45837;51.076;3.578;2022-09-21T01:50:06;19.10;65.30
59977;DHT22;45837;51.076;3.578;2022-09-21T01:52:37;19.10;65.30
59977;DHT22;45837;51.076;3.578;2022-09-21T01:55:40;19.10;65.30
59977;DHT22;45837;51.076;3.578;2022-09-21T01:58:45;19.10;65.20
59977;DHT22;45837;51.076;3.578;2022-09-21T02:01:15;19.10;66.00
59977;DHT22;45837;51.076;3.578;2022-09-21T02:03:48;19.10;65.20
59977;DHT22;45837;51.076;3.578;2022-09-21T02:06:17;19.10;65.20
59977;DHT22;45837;51.076;3.578;2022-09-21T02:08:43;19.10;65.20
59977;DHT22;45837;51.076;3.578;2022-09-21T02:11:09;19.10;65.30
59977;DHT22;45837;51.076;3.578;2022-09-21T02:13:39;19.10;65.90
59977;DHT22;45837;51.076;3.578;2022-09-21T02:21:33;19.10;65.00
59977;DHT22;45837;51.076;3.578;2022-09-21T02:24:15;19.10;65.00
59977;DHT22;45837;51.076;3.578;2022-09-21T02:26:49;19.10;65.10
59977;DHT22;45837;51.076;3.578;2022-09-21T02:29:29;19.10;65.00
59977;DHT22;45837;51.076;3.578;2022-09-21T02:37:56;19.10;65.00
59977;DHT22;45837;51.076;3.578;2022-09-21T02:42:59;19.10;64.90
59977;DHT22;45837;51.076;3.578;2022-09-21T02:45:30;19.00;64.90
59977;DHT22;45837;51.076;3.578;2022-09-21T02:48:08;19.10;64.90
59977;DHT22;45837;51.076;3.578;2022-09-21T02:51:08;19.00;64.90
59977;DHT22;45837;51.076;3.578;2022-09-21T02:53:36;19.00;65.00
59977;DHT22;45837;51.076;3.578;2022-09-21T02:56:03;19.00;64.90
59977;DHT22;45837;51.076;3.578;2022-09-21T02:58:39;19.00;64.90
59977;DHT22;45837;51.076;3.578;2022-09-21T03:01:10;19.00;64.90
59977;DHT22;45837;51.076;3.578;2022-09-21T03:03:36;19.00;64.90
59977;DHT22;45837;51.076;3.578;2022-09-21T03:06:02;19.00;64.80
59977;DHT22;45837;51.076;3.578;2022-09-21T03:08:29;19.00;64.90
59977;DHT22;45837;51.076;3.578;2022-09-21T03:10:55;19.00;64.90
59977;DHT22;45837;51.076;3.578;2022-09-21T03:13:22;19.00;64.90
59977;DHT22;45837;51.076;3.578;2022-09-21T03:15:48;19.00;64.80
59977;DHT22;45837;51.076;3.578;2022-09-21T03:18:14;19.00;64.80
59977;DHT22;45837;51.076;3.578;2022-09-21T03:20:43;19.00;64.80
59977;DHT22;45837;51.076;3.578;2022-09-21T03:23:12;19.00;64.80
59977;DHT22;45837;51.076;3.578;2022-09-21T03:25:38;19.00;64.80
59977;DHT22;45837;51.076;3.578;2022-09-21T03:28:04;19.00;64.70
59977;DHT22;45837;51.076;3.578;2022-09-21T03:30:30;19.00;64.80
59977;DHT22;45837;51.076;3.578;2022-09-21T03:32:56;19.00;64.80
59977;DHT22;45837;51.076;3.578;2022-09-21T03:35:24;19.00;64.80
59977;DHT22;45837;51.076;3.578;2022-09-21T03:37:52;19.00;64.80
59977;DHT22;45837;51.076;3.578;2022-09-21T03:40:20;18.90;64.60
59977;DHT22;45837;51.076;3.578;2022-09-21T03:42:46;19.00;64.70
59977;DHT22;45837;51.076;3.578;2022-09-21T03:45:12;19.00;64.50
59977;DHT22;45837;51.076;3.578;2022-09-21T03:47:38;19.00;64.40
59977;DHT22;45837;51.076;3.578;2022-09-21T03:50:05;19.00;64.50
59977;DHT22;45837;51.076;3.578;2022-09-21T03:52:32;19.00;64.50
59977;DHT22;45837;51.076;3.578;2022-09-21T03:54:57;18.90;64.40
59977;DHT22;45837;51.076;3.578;2022-09-21T03:57:24;19.00;64.50
59977;DHT22;45837;51.076;3.578;2022-09-21T03:59:49;18.90;65.10
59977;DHT22;45837;51.076;3.578;2022-09-21T04:02:15;18.90;64.30
59977;DHT22;45837;51.076;3.578;2022-09-21T04:04:41;19.00;64.50
59977;DHT22;45837;51.076;3.578;2022-09-21T04:07:07;19.00;64.50
59977;DHT22;45837;51.076;3.578;2022-09-21T04:09:33;18.90;64.50
59977;DHT22;45837;51.076;3.578;2022-09-21T04:11:58;18.90;64.40
59977;DHT22;45837;51.076;3.578;2022-09-21T04:14:24;18.90;64.40
59977;DHT22;45837;51.076;3.578;2022-09-21T04:16:50;18.90;64.40
59977;DHT22;45837;51.076;3.578;2022-09-21T04:19:17;19.00;64.30
59977;DHT22;45837;51.076;3.578;2022-09-21T04:21:43;18.90;64.30
59977;DHT22;45837;51.076;3.578;2022-09-21T04:24:09;18.90;64.30
59977;DHT22;45837;51.076;3.578;2022-09-21T04:26:35;18.90;64.50
59977;DHT22;45837;51.076;3.578;2022-09-21T04:29:01;18.90;64.30
59977;DHT22;45837;51.076;3.578;2022-09-21T04:31:28;18.90;64.30
59977;DHT22;45837;51.076;3.578;2022-09-21T04:33:55;18.90;64.20
59977;DHT22;45837;51.076;3.578;2022-09-21T04:36:23;18.90;64.30
59977;DHT22;45837;51.076;3.578;2022-09-21T04:38:49;18.90;64.20
59977;DHT22;45837;51.076;3.578;2022-09-21T04:41:16;18.90;64.20
59977;DHT22;45837;51.076;3.578;2022-09-21T04:43:43;18.90;64.20
59977;DHT22;45837;51.076;3.578;2022-09-21T04:46:12;18.90;64.20
59977;DHT22;45837;51.076;3.578;2022-09-21T04:48:38;18.90;64.20
59977;DHT22;45837;51.076;3.578;2022-09-21T04:51:05;18.90;64.20
59977;DHT22;45837;51.076;3.578;2022-09-21T04:53:33;18.90;64.20
59977;DHT22;45837;51.076;3.578;2022-09-21T04:55:59;18.90;64.20
59977;DHT22;45837;51.076;3.578;2022-09-21T04:58:25;18.90;64.20
59977;DHT22;45837;51.076;3.578;2022-09-21T05:00:52;18.90;64.20
59977;DHT22;45837;51.076;3.578;2022-09-21T05:03:20;18.80;64.10
59977;DHT22;45837;51.076;3.578;2022-09-21T05:05:53;18.90;64.10
59977;DHT22;45837;51.076;3.578;2022-09-21T05:08:20;18.90;64.10
59977;DHT22;45837;51.076;3.578;2022-09-21T05:11:08;18.90;64.10
59977;DHT22;45837;51.076;3.578;2022-09-21T05:13:34;18.80;64.00
59977;DHT22;45837;51.076;3.578;2022-09-21T05:16:00;18.80;64.10
59977;DHT22;45837;51.076;3.578;2022-09-21T05:18:26;18.80;64.20
59977;DHT22;45837;51.076;3.578;2022-09-21T05:20:56;18.90;64.10
59977;DHT22;45837;51.076;3.578;2022-09-21T05:23:22;18.90;63.80
59977;DHT22;45837;51.076;3.578;2022-09-21T05:25:49;18.90;63.80
59977;DHT22;45837;51.076;3.578;2022-09-21T05:28:16;18.90;63.70
59977;DHT22;45837;51.076;3.578;2022-09-21T05:30:44;18.90;63.70
59977;DHT22;45837;51.076;3.578;2022-09-21T05:33:15;18.90;63.90
59977;DHT22;45837;51.076;3.578;2022-09-21T05:36:02;18.90;63.90
59977;DHT22;45837;51.076;3.578;2022-09-21T05:38:33;19.00;64.20
59977;DHT22;45837;51.076;3.578;2022-09-21T05:40:59;19.00;64.20
59977;DHT22;45837;51.076;3.578;2022-09-21T05:43:25;19.00;64.20
59977;DHT22;45837;51.076;3.578;2022-09-21T05:45:57;19.00;64.40
59977;DHT22;45837;51.076;3.578;2022-09-21T05:48:37;18.90;64.30
59977;DHT22;45837;51.076;3.578;2022-09-21T06:04:10;19.00;64.30
59977;DHT22;45837;51.076;3.578;2022-09-21T06:06:37;19.00;64.20
59977;DHT22;45837;51.076;3.578;2022-09-21T06:09:04;19.00;64.10
59977;DHT22;45837;51.076;3.578;2022-09-21T06:11:30;19.00;64.20
59977;DHT22;45837;51.076;3.578;2022-09-21T06:13:56;18.90;64.10
59977;DHT22;45837;51.076;3.578;2022-09-21T06:16:22;18.90;64.10
59977;DHT22;45837;51.076;3.578;2022-09-21T06:18:48;19.00;64.20
59977;DHT22;45837;51.076;3.578;2022-09-21T06:21:13;18.90;64.00
59977;DHT22;45837;51.076;3.578;2022-09-21T06:23:39;19.00;64.00
59977;DHT22;45837;51.076;3.578;2022-09-21T06:26:05;19.00;63.90
59977;DHT22;45837;51.076;3.578;2022-09-21T06:28:31;19.00;63.90
59977;DHT22;45837;51.076;3.578;2022-09-21T06:30:57;19.00;64.00
59977;DHT22;45837;51.076;3.578;2022-09-21T06:33:23;19.00;63.80
59977;DHT22;45837;51.076;3.578;2022-09-21T06:35:59;19.00;63.70
59977;DHT22;45837;51.076;3.578;2022-09-21T06:38:26;19.00;63.70
59977;DHT22;45837;51.076;3.578;2022-09-21T06:40:53;19.10;64.10
59977;DHT22;45837;51.076;3.578;2022-09-21T06:43:19;19.10;64.20
59977;DHT22;45837;51.076;3.578;2022-09-21T06:45:59;19.10;64.60
59977;DHT22;45837;51.076;3.578;2022-09-21T06:48:26;19.20;65.00
59977;DHT22;45837;51.076;3.578;2022-09-21T06:50:59;19.20;65.30
59977;DHT22;45837;51.076;3.578;2022-09-21T06:53:26;19.20;65.50
59977;DHT22;45837;51.076;3.578;2022-09-21T06:55:52;19.20;65.50
59977;DHT22;45837;51.076;3.578;2022-09-21T06:58:18;19.30;65.50
59977;DHT22;45837;51.076;3.578;2022-09-21T07:00:44;19.30;65.10
59977;DHT22;45837;51.076;3.578;2022-09-21T07:03:11;19.40;65.20
59977;DHT22;45837;51.076;3.578;2022-09-21T07:05:38;19.40;65.40
59977;DHT22;45837;51.076;3.578;2022-09-21T07:08:04;19.40;65.30
59977;DHT22;45837;51.076;3.578;2022-09-21T07:10:30;19.40;65.20
59977;DHT22;45837;51.076;3.578;2022-09-21T07:13:01;19.40;65.30
59977;DHT22;45837;51.076;3.578;2022-09-21T07:15:28;19.50;65.30
59977;DHT22;45837;51.076;3.578;2022-09-21T07:17:54;19.50;65.60
59977;DHT22;45837;51.076;3.578;2022-09-21T07:20:20;19.50;65.90
59977;DHT22;45837;51.076;3.578;2022-09-21T07:22:46;19.50;65.70
59977;DHT22;45837;51.076;3.578;2022-09-21T07:25:12;19.50;65.50
59977;DHT22;45837;51.076;3.578;2022-09-21T07:27:39;19.60;65.50
59977;DHT22;45837;51.076;3.578;2022-09-21T07:30:05;19.60;65.70
59977;DHT22;45837;51.076;3.578;2022-09-21T07:32:32;19.60;65.70
59977;DHT22;45837;51.076;3.578;2022-09-21T07:34:58;19.60;65.70
59977;DHT22;45837;51.076;3.578;2022-09-21T07:37:24;19.70;65.60
59977;DHT22;45837;51.076;3.578;2022-09-21T07:39:51;19.70;65.70
59977;DHT22;45837;51.076;3.578;2022-09-21T07:42:17;19.70;65.80
59977;DHT22;45837;51.076;3.578;2022-09-21T07:44:45;19.70;65.90
59977;DHT22;45837;51.076;3.578;2022-09-21T07:47:12;19.80;65.90
59977;DHT22;45837;51.076;3.578;2022-09-21T07:49:39;19.80;65.90
59977;DHT22;45837;51.076;3.578;2022-09-21T07:52:06;19.80;65.90
59977;DHT22;45837;51.076;3.578;2022-09-21T07:54:34;19.80;65.90
59977;DHT22;45837;51.076;3.578;2022-09-21T07:57:00;19.80;66.20
59977;DHT22;45837;51.076;3.578;2022-09-21T07:59:44;19.80;66.30
59977;DHT22;45837;51.076;3.578;2022-09-21T08:02:11;19.80;66.30
59977;DHT22;45837;51.076;3.578;2022-09-21T08:04:36;19.80;66.40
59977;DHT22;45837;51.076;3.578;2022-09-21T08:07:03;19.90;66.60
59977;DHT22;45837;51.076;3.578;2022-09-21T08:09:29;19.90;66.20
59977;DHT22;45837;51.076;3.578;2022-09-21T08:11:55;19.90;66.10
59977;DHT22;45837;51.076;3.578;2022-09-21T08:14:21;19.90;66.00
59977;DHT22;45837;51.076;3.578;2022-09-21T08:16:47;20.00;65.90
59977;DHT22;45837;51.076;3.578;2022-09-21T08:19:16;20.00;65.20
59977;DHT22;45837;51.076;3.578;2022-09-21T08:21:42;20.00;66.00
59977;DHT22;45837;51.076;3.578;2022-09-21T08:24:09;20.00;65.30
59977;DHT22;45837;51.076;3.578;2022-09-21T08:26:35;20.00;65.40
59977;DHT22;45837;51.076;3.578;2022-09-21T08:29:01;20.00;65.30
59977;DHT22;45837;51.076;3.578;2022-09-21T08:31:27;20.00;66.10
59977;DHT22;45837;51.076;3.578;2022-09-21T08:33:54;20.00;65.30
59977;DHT22;45837;51.076;3.578;2022-09-21T08:36:21;20.10;65.10
59977;DHT22;45837;51.076;3.578;2022-09-21T08:38:47;20.10;65.10
59977;DHT22;45837;51.076;3.578;2022-09-21T08:41:16;20.10;65.00
59977;DHT22;45837;51.076;3.578;2022-09-21T08:43:44;20.20;65.00
59977;DHT22;45837;51.076;3.578;2022-09-21T08:46:16;20.10;64.90
59977;DHT22;45837;51.076;3.578;2022-09-21T08:48:49;20.20;64.80
59977;DHT22;45837;51.076;3.578;2022-09-21T08:51:25;20.20;64.80
59977;DHT22;45837;51.076;3.578;2022-09-21T08:53:56;20.20;64.80
59977;DHT22;45837;51.076;3.578;2022-09-21T08:56:24;20.20;64.80
59977;DHT22;45837;51.076;3.578;2022-09-21T08:58:50;20.20;64.90
59977;DHT22;45837;51.076;3.578;2022-09-21T09:20:14;20.20;64.70
59977;DHT22;45837;51.076;3.578;2022-09-21T09:22:49;20.30;64.60
59977;DHT22;45837;51.076;3.578;2022-09-21T09:25:21;20.20;64.60
59977;DHT22;45837;51.076;3.578;2022-09-21T09:27:53;20.20;64.70
59977;DHT22;45837;51.076;3.578;2022-09-21T09:30:23;20.30;64.70
59977;DHT22;45837;51.076;3.578;2022-09-21T09:33:06;20.30;64.60
59977;DHT22;45837;51.076;3.578;2022-09-21T09:35:43;20.30;64.60
59977;DHT22;45837;51.076;3.578;2022-09-21T09:49:25;20.30;64.30
59977;DHT22;45837;51.076;3.578;2022-09-21T09:51:52;20.40;63.60
59977;DHT22;45837;51.076;3.578;2022-09-21T09:54:20;20.30;62.50
59977;DHT22;45837;51.076;3.578;2022-09-21T09:56:48;20.40;62.40
59977;DHT22;45837;51.076;3.578;2022-09-21T09:59:29;20.40;62.10
59977;DHT22;45837;51.076;3.578;2022-09-21T10:04:35;20.50;61.30
59977;DHT22;45837;51.076;3.578;2022-09-21T10:07:18;20.50;60.70
59977;DHT22;45837;51.076;3.578;2022-09-21T10:09:44;20.60;60.70
59977;DHT22;45837;51.076;3.578;2022-09-21T10:12:23;20.60;60.50
59977;DHT22;45837;51.076;3.578;2022-09-21T10:14:51;20.60;60.20
59977;DHT22;45837;51.076;3.578;2022-09-21T10:17:18;20.60;60.20
59977;DHT22;45837;51.076;3.578;2022-09-21T10:19:44;20.60;60.30
59977;DHT22;45837;51.076;3.578;2022-09-21T10:22:18;20.50;60.80
59977;DHT22;45837;51.076;3.578;2022-09-21T10:24:52;20.50;60.70
59977;DHT22;45837;51.076;3.578;2022-09-21T10:27:25;20.50;60.70
59977;DHT22;45837;51.076;3.578;2022-09-21T10:29:51;20.50;60.40
59977;DHT22;45837;51.076;3.578;2022-09-21T10:32:25;20.50;60.20
59977;DHT22;45837;51.076;3.578;2022-09-21T10:37:33;20.50;59.80
59977;DHT22;45837;51.076;3.578;2022-09-21T10:40:00;20.50;58.70
59977;DHT22;45837;51.076;3.578;2022-09-21T10:42:30;20.50;58.00
59977;DHT22;45837;51.076;3.578;2022-09-21T10:47:46;20.60;58.70
59977;DHT22;45837;51.076;3.578;2022-09-21T10:55:41;20.70;60.30
59977;DHT22;45837;51.076;3.578;2022-09-21T10:58:11;20.80;60.70
59977;DHT22;45837;51.076;3.578;2022-09-21T11:00:43;20.80;60.70
59977;DHT22;45837;51.076;3.578;2022-09-21T11:03:34;20.80;61.50
59977;DHT22;45837;51.076;3.578;2022-09-21T11:06:26;20.90;61.90
59977;DHT22;45837;51.076;3.578;2022-09-21T11:08:55;20.90;61.90
59977;DHT22;45837;51.076;3.578;2022-09-21T11:11:45;21.00;62.00
59977;DHT22;45837;51.076;3.578;2022-09-21T11:14:48;21.00;62.10
59977;DHT22;45837;51.076;3.578;2022-09-21T11:17:18;21.00;62.40
59977;DHT22;45837;51.076;3.578;2022-09-21T11:19:53;21.00;61.60
59977;DHT22;45837;51.076;3.578;2022-09-21T11:22:46;21.00;61.80
59977;DHT22;45837;51.076;3.578;2022-09-21T11:27:54;21.00;59.40
59977;DHT22;45837;51.076;3.578;2022-09-21T11:30:22;21.00;59.10
59977;DHT22;45837;51.076;3.578;2022-09-21T11:33:09;21.00;60.00
59977;DHT22;45837;51.076;3.578;2022-09-21T11:35:49;21.00;59.80
59977;DHT22;45837;51.076;3.578;2022-09-21T11:54:57;21.00;61.80
59977;DHT22;45837;51.076;3.578;2022-09-21T11:57:57;21.00;59.90
59977;DHT22;45837;51.076;3.578;2022-09-21T12:00:32;21.00;61.60
59977;DHT22;45837;51.076;3.578;2022-09-21T12:06:34;21.00;62.80
59977;DHT22;45837;51.076;3.578;2022-09-21T12:17:44;21.00;58.90
59977;DHT22;45837;51.076;3.578;2022-09-21T12:25:56;20.80;56.60
59977;DHT22;45837;51.076;3.578;2022-09-21T12:31:13;20.70;56.30
59977;DHT22;45837;51.076;3.578;2022-09-21T12:34:08;20.60;56.00
59977;DHT22;45837;51.076;3.578;2022-09-21T12:36:41;20.50;55.20
59977;DHT22;45837;51.076;3.578;2022-09-21T12:39:15;20.50;55.10
59977;DHT22;45837;51.076;3.578;2022-09-21T12:42:08;20.50;55.40
59977;DHT22;45837;51.076;3.578;2022-09-21T12:44:49;20.50;55.40
59977;DHT22;45837;51.076;3.578;2022-09-21T12:49:48;20.50;55.70
59977;DHT22;45837;51.076;3.578;2022-09-21T12:52:22;20.50;55.90
59977;DHT22;45837;51.076;3.578;2022-09-21T12:55:16;20.50;56.00
59977;DHT22;45837;51.076;3.578;2022-09-21T12:57:55;20.50;56.20
59977;DHT22;45837;51.076;3.578;2022-09-21T13:00:30;20.40;56.20
59977;DHT22;45837;51.076;3.578;2022-09-21T13:03:16;20.40;56.40
59977;DHT22;45837;51.076;3.578;2022-09-21T13:08:37;20.50;56.40
59977;DHT22;45837;51.076;3.578;2022-09-21T13:11:05;20.40;56.20
59977;DHT22;45837;51.076;3.578;2022-09-21T13:13:55;20.40;56.20
59977;DHT22;45837;51.076;3.578;2022-09-21T13:16:32;20.40;56.30
59977;DHT22;45837;51.076;3.578;2022-09-21T13:19:01;20.40;56.40
59977;DHT22;45837;51.076;3.578;2022-09-21T13:21:30;20.40;56.60
59977;DHT22;45837;51.076;3.578;2022-09-21T13:24:04;20.40;56.60
59977;DHT22;45837;51.076;3.578;2022-09-21T13:26:32;20.40;56.70
59977;DHT22;45837;51.076;3.578;2022-09-21T13:32:03;20.40;56.70
59977;DHT22;45837;51.076;3.578;2022-09-21T13:34:44;20.40;56.80
59977;DHT22;45837;51.076;3.578;2022-09-21T13:37:27;20.40;56.80
59977;DHT22;45837;51.076;3.578;2022-09-21T13:47:37;20.40;57.10
59977;DHT22;45837;51.076;3.578;2022-09-21T13:50:29;20.40;57.10
59977;DHT22;45837;51.076;3.578;2022-09-21T13:53:13;20.30;57.00
59977;DHT22;45837;51.076;3.578;2022-09-21T13:55:52;20.30;57.00
59977;DHT22;45837;51.076;3.578;2022-09-21T13:58:32;20.40;56.80
59977;DHT22;45837;51.076;3.578;2022-09-21T14:01:03;20.30;56.90
59977;DHT22;45837;51.076;3.578;2022-09-21T14:06:11;20.30;56.90
59977;DHT22;45837;51.076;3.578;2022-09-21T14:08:44;20.40;57.10
59977;DHT22;45837;51.076;3.578;2022-09-21T14:11:20;20.30;56.90
59977;DHT22;45837;51.076;3.578;2022-09-21T14:24:51;20.30;57.80
59977;DHT22;45837;51.076;3.578;2022-09-21T14:27:41;20.40;57.80
59977;DHT22;45837;51.076;3.578;2022-09-21T14:30:19;20.40;57.80
59977;DHT22;45837;51.076;3.578;2022-09-21T14:35:25;20.40;57.60
59977;DHT22;45837;51.076;3.578;2022-09-21T14:37:55;20.40;57.80
59977;DHT22;45837;51.076;3.578;2022-09-21T14:40:24;20.40;57.90
59977;DHT22;45837;51.076;3.578;2022-09-21T14:42:54;20.30;56.90
59977;DHT22;45837;51.076;3.578;2022-09-21T14:48:37;20.40;54.50
59977;DHT22;45837;51.076;3.578;2022-09-21T14:51:25;20.30;55.10
59977;DHT22;45837;51.076;3.578;2022-09-21T14:56:37;20.40;55.80
59977;DHT22;45837;51.076;3.578;2022-09-21T15:02:24;20.40;56.70
59977;DHT22;45837;51.076;3.578;2022-09-21T15:11:35;20.50;57.50
59977;DHT22;45837;51.076;3.578;2022-09-21T15:14:26;20.50;57.50
59977;DHT22;45837;51.076;3.578;2022-09-21T15:16:54;20.50;57.90
59977;DHT22;45837;51.076;3.578;2022-09-21T15:19:28;20.50;58.00
59977;DHT22;45837;51.076;3.578;2022-09-21T15:22:08;20.50;58.10
59977;DHT22;45837;51.076;3.578;2022-09-21T15:24:35;20.50;58.40
59977;DHT22;45837;51.076;3.578;2022-09-21T15:27:13;20.50;58.50
59977;DHT22;45837;51.076;3.578;2022-09-21T15:29:43;20.50;58.60
59977;DHT22;45837;51.076;3.578;2022-09-21T15:32:31;20.50;58.70
59977;DHT22;45837;51.076;3.578;2022-09-21T15:35:05;20.60;58.80
59977;DHT22;45837;51.076;3.578;2022-09-21T15:37:36;20.60;59.30
59977;DHT22;45837;51.076;3.578;2022-09-21T15:45:27;20.70;61.00
59977;DHT22;45837;51.076;3.578;2022-09-21T15:47:54;20.70;61.30
59977;DHT22;45837;51.076;3.578;2022-09-21T15:50:24;20.70;61.40
59977;DHT22;45837;51.076;3.578;2022-09-21T15:52:58;20.70;61.80
59977;DHT22;45837;51.076;3.578;2022-09-21T15:55:27;20.70;62.20
59977;DHT22;45837;51.076;3.578;2022-09-21T15:57:55;20.80;63.10
59977;DHT22;45837;51.076;3.578;2022-09-21T16:00:27;20.80;63.40
59977;DHT22;45837;51.076;3.578;2022-09-21T16:03:06;20.80;63.90
59977;DHT22;45837;51.076;3.578;2022-09-21T16:05:47;20.80;64.00
59977;DHT22;45837;51.076;3.578;2022-09-21T16:08:20;20.90;64.40
59977;DHT22;45837;51.076;3.578;2022-09-21T16:10:51;20.90;64.60
59977;DHT22;45837;51.076;3.578;2022-09-21T16:13:22;20.90;64.20
59977;DHT22;45837;51.076;3.578;2022-09-21T16:16:13;20.90;64.40
59977;DHT22;45837;51.076;3.578;2022-09-21T16:18:52;20.90;64.60
59977;DHT22;45837;51.076;3.578;2022-09-21T16:23:50;21.00;65.10
59977;DHT22;45837;51.076;3.578;2022-09-21T16:26:26;21.00;64.60
59977;DHT22;45837;51.076;3.578;2022-09-21T16:29:15;21.10;64.40
59977;DHT22;45837;51.076;3.578;2022-09-21T16:31:41;21.00;64.70
59977;DHT22;45837;51.076;3.578;2022-09-21T16:34:30;21.10;64.90
59977;DHT22;45837;51.076;3.578;2022-09-21T16:37:17;21.10;64.80
59977;DHT22;45837;51.076;3.578;2022-09-21T16:39:57;21.10;64.70
59977;DHT22;45837;51.076;3.578;2022-09-21T16:42:27;21.00;64.30
59977;DHT22;45837;51.076;3.578;2022-09-21T16:44:57;21.00;64.00
59977;DHT22;45837;51.076;3.578;2022-09-21T16:47:25;21.00;64.70
59977;DHT22;45837;51.076;3.578;2022-09-21T16:49:58;20.90;65.70
59977;DHT22;45837;51.076;3.578;2022-09-21T16:52:28;21.00;66.50
59977;DHT22;45837;51.076;3.578;2022-09-21T16:54:55;20.90;66.50
59977;DHT22;45837;51.076;3.578;2022-09-21T16:57:25;20.90;67.90
59977;DHT22;45837;51.076;3.578;2022-09-21T16:59:51;20.90;68.20
59977;DHT22;45837;51.076;3.578;2022-09-21T17:02:17;20.90;67.50
59977;DHT22;45837;51.076;3.578;2022-09-21T17:04:44;20.90;67.20
59977;DHT22;45837;51.076;3.578;2022-09-21T17:07:11;20.90;67.60
59977;DHT22;45837;51.076;3.578;2022-09-21T17:09:39;20.90;67.60
59977;DHT22;45837;51.076;3.578;2022-09-21T17:12:10;20.90;67.30
59977;DHT22;45837;51.076;3.578;2022-09-21T17:14:36;21.00;67.30
59977;DHT22;45837;51.076;3.578;2022-09-21T17:17:17;21.00;67.10
59977;DHT22;45837;51.076;3.578;2022-09-21T17:19:44;21.00;67.20
59977;DHT22;45837;51.076;3.578;2022-09-21T17:22:11;21.00;67.60
59977;DHT22;45837;51.076;3.578;2022-09-21T17:24:46;21.00;67.50
59977;DHT22;45837;51.076;3.578;2022-09-21T17:27:15;21.00;67.30
59977;DHT22;45837;51.076;3.578;2022-09-21T17:29:44;20.90;67.10
59977;DHT22;45837;51.076;3.578;2022-09-21T17:32:23;20.90;66.70
59977;DHT22;45837;51.076;3.578;2022-09-21T17:34:59;20.90;66.30
59977;DHT22;45837;51.076;3.578;2022-09-21T17:37:36;20.90;66.20
59977;DHT22;45837;51.076;3.578;2022-09-21T17:40:03;20.80;66.30
59977;DHT22;45837;51.076;3.578;2022-09-21T17:42:29;20.90;66.60
59977;DHT22;45837;51.076;3.578;2022-09-21T17:47:37;20.80;66.30
59977;DHT22;45837;51.076;3.578;2022-09-21T17:52:35;20.80;66.30
59977;DHT22;45837;51.076;3.578;2022-09-21T17:55:20;20.80;66.30
59977;DHT22;45837;51.076;3.578;2022-09-21T18:03:26;20.80;65.90
59977;DHT22;45837;51.076;3.578;2022-09-21T18:05:53;20.70;65.90
59977;DHT22;45837;51.076;3.578;2022-09-21T18:08:22;20.70;65.80
59977;DHT22;45837;51.076;3.578;2022-09-21T18:20:39;20.70;66.00
59977;DHT22;45837;51.076;3.578;2022-09-21T18:23:20;20.80;66.30
59977;DHT22;45837;51.076;3.578;2022-09-21T18:25:51;20.70;66.10
59977;DHT22;45837;51.076;3.578;2022-09-21T18:36:35;20.70;66.50
59977;DHT22;45837;51.076;3.578;2022-09-21T18:41:48;20.60;66.40
59977;DHT22;45837;51.076;3.578;2022-09-21T18:44:28;20.60;63.80
59977;DHT22;45837;51.076;3.578;2022-09-21T18:47:21;20.60;62.70
59977;DHT22;45837;51.076;3.578;2022-09-21T18:55:37;20.60;64.50
59977;DHT22;45837;51.076;3.578;2022-09-21T18:58:03;20.60;65.00
59977;DHT22;45837;51.076;3.578;2022-09-21T19:00:30;20.50;64.80
59977;DHT22;45837;51.076;3.578;2022-09-21T19:02:57;20.50;64.60
59977;DHT22;45837;51.076;3.578;2022-09-21T19:05:24;20.50;64.80
59977;DHT22;45837;51.076;3.578;2022-09-21T19:08:18;20.60;64.40
59977;DHT22;45837;51.076;3.578;2022-09-21T19:10:56;20.60;64.20
59977;DHT22;45837;51.076;3.578;2022-09-21T19:13:48;20.60;64.20
59977;DHT22;45837;51.076;3.578;2022-09-21T19:16:28;20.60;64.20
59977;DHT22;45837;51.076;3.578;2022-09-21T19:27:05;20.60;64.30
59977;DHT22;45837;51.076;3.578;2022-09-21T19:30:06;20.60;64.40
59977;DHT22;45837;51.076;3.578;2022-09-21T19:32:32;20.50;64.20
59977;DHT22;45837;51.076;3.578;2022-09-21T19:35:10;20.50;64.50
59977;DHT22;45837;51.076;3.578;2022-09-21T19:37:37;20.60;64.60